createdAt,value
2019-01-20T00:00:38.531Z,43.02
2019-01-20T00:02:40.266Z,44.80
2019-01-20T00:04:42.020Z,43.28
2019-01-20T00:06:43.727Z,41.73
2019-01-20T00:08:45.446Z,41.88
2019-01-20T00:10:47.174Z,39.33
2019-01-20T00:12:49.006Z,46.40
2019-01-20T00:14:50.776Z,43.65
2019-01-20T00:16:52.536Z,48.58
2019-01-20T00:18:54.263Z,45.05
2019-01-20T00:20:55.992Z,42.85
2019-01-20T00:22:57.807Z,44.80
2019-01-20T00:24:59.577Z,45.52
2019-01-20T00:27:01.384Z,38.35
2019-01-20T00:29:04.098Z,43.60
2019-01-20T00:31:05.843Z,48.63
2019-01-20T00:33:07.719Z,40.43
2019-01-20T00:35:09.618Z,45.43
2019-01-20T00:37:11.620Z,45.70
2019-01-20T00:39:13.315Z,52.27
2019-01-20T00:41:15.122Z,47.25
2019-01-20T00:43:16.870Z,43.08
2019-01-20T00:45:18.795Z,45.40
2019-01-20T00:47:20.511Z,51.90
2019-01-20T00:49:22.264Z,43.80
2019-01-20T00:51:23.982Z,47.33
2019-01-20T00:53:25.694Z,53.20
2019-01-20T00:55:27.694Z,43.40
2019-01-20T00:57:31.681Z,49.95
2019-01-20T00:59:33.402Z,46.65
2019-01-20T01:01:35.758Z,44.55
2019-01-20T01:03:37.902Z,44.15
2019-01-20T01:05:40.168Z,44.30
2019-01-20T01:07:42.099Z,56.42
2019-01-20T01:09:44.112Z,45.10
2019-01-20T01:11:46.684Z,45.95
2019-01-20T01:13:48.814Z,46.58
2019-01-20T01:15:50.887Z,46.40
2019-01-20T01:17:52.605Z,44.10
2019-01-20T01:19:55.411Z,42.98
2019-01-20T01:21:57.319Z,43.30
2019-01-20T01:23:59.026Z,41.53
2019-01-20T01:26:00.723Z,41.30
2019-01-20T01:28:03.030Z,47.05
2019-01-20T01:30:08.050Z,51.92
2019-01-20T01:32:09.958Z,51.28
2019-01-20T01:34:11.850Z,52.78
2019-01-20T01:36:13.559Z,60.52
2019-01-20T01:38:15.270Z,53.45
2019-01-20T01:40:17.874Z,51.02
2019-01-20T01:42:19.687Z,52.50
2019-01-20T01:44:21.435Z,46.05
2019-01-20T01:46:23.427Z,46.92
2019-01-20T01:48:25.138Z,52.35
2019-01-20T01:50:26.879Z,42.67
2019-01-20T01:52:28.587Z,47.40
2019-01-20T01:54:30.306Z,56.10
2019-01-20T01:56:32.040Z,45.35
2019-01-20T01:58:33.850Z,49.98
2019-01-20T02:00:35.666Z,51.85
2019-01-20T02:02:37.568Z,57.48
2019-01-20T02:04:39.274Z,45.70
2019-01-20T02:06:41.083Z,58.35
2019-01-20T02:08:43.447Z,56.42
2019-01-20T02:10:45.160Z,45.03
2019-01-20T02:12:48.194Z,55.73
2019-01-20T02:14:50.087Z,48.78
2019-01-20T02:16:52.035Z,53.58
2019-01-20T02:18:53.742Z,55.85
2019-01-20T02:20:55.487Z,50.65
2019-01-20T02:22:57.218Z,53.87
2019-01-20T02:24:59.244Z,56.42
2019-01-20T02:27:00.999Z,54.90
2019-01-20T02:29:03.722Z,58.28
2019-01-20T02:31:05.781Z,60.85
2019-01-20T02:33:07.607Z,57.23
2019-01-20T02:35:09.510Z,52.70
2019-01-20T02:37:11.328Z,45.55
2019-01-20T02:39:13.062Z,53.55
2019-01-20T02:41:14.781Z,56.58
2019-01-20T02:43:16.505Z,57.08
2019-01-20T02:45:18.322Z,43.80
2019-01-20T02:47:20.032Z,51.88
2019-01-20T02:49:21.870Z,53.87
2019-01-20T02:51:23.676Z,43.35
2019-01-20T02:53:25.387Z,50.58
2019-01-20T02:55:27.368Z,55.58
2019-01-20T02:57:29.199Z,50.33
2019-01-20T02:59:30.920Z,51.85
2019-01-20T03:01:32.624Z,57.83
2019-01-20T03:03:34.455Z,59.50
2019-01-20T03:05:36.620Z,48.87
2019-01-20T03:07:38.336Z,55.03
2019-01-20T03:09:40.154Z,53.33
2019-01-20T03:11:41.863Z,56.65
2019-01-20T03:13:43.577Z,59.75
2019-01-20T03:15:45.418Z,56.68
2019-01-20T03:17:47.224Z,57.15
2019-01-20T03:19:48.934Z,59.95
2019-01-20T03:21:50.826Z,65.78
2019-01-20T03:23:52.526Z,58.20
2019-01-20T03:25:54.264Z,52.75
2019-01-20T03:27:56.095Z,52.48
2019-01-20T03:29:57.811Z,62.17
2019-01-20T03:31:59.534Z,52.70
2019-01-20T03:34:01.761Z,53.42
2019-01-20T03:36:03.670Z,53.33
2019-01-20T03:38:05.473Z,53.98
2019-01-20T03:40:09.314Z,59.33
2019-01-20T03:42:12.106Z,59.80
2019-01-20T03:44:14.247Z,64.20
2019-01-20T03:46:16.114Z,53.55
2019-01-20T03:48:17.937Z,60.73
2019-01-20T03:50:19.762Z,61.85
2019-01-20T03:52:21.715Z,64.03
2019-01-20T03:54:23.521Z,59.18
2019-01-20T03:56:25.541Z,56.92
2019-01-20T03:58:27.363Z,53.05
2019-01-20T04:00:29.348Z,58.68
2019-01-20T04:02:31.433Z,58.60
2019-01-20T04:04:33.419Z,60.35
2019-01-20T04:06:35.142Z,50.55
2019-01-20T04:08:36.852Z,53.60
2019-01-20T04:10:38.704Z,59.98
2019-01-20T04:12:40.423Z,59.48
2019-01-20T04:14:42.230Z,51.73
2019-01-20T04:16:44.329Z,54.90
2019-01-20T04:18:46.042Z,53.78
2019-01-20T04:20:47.750Z,53.38
2019-01-20T04:22:49.609Z,48.23
2019-01-20T04:24:51.410Z,50.08
2019-01-20T04:26:53.386Z,54.23
2019-01-20T04:28:55.222Z,52.25
2019-01-20T04:30:57.043Z,46.95
2019-01-20T04:32:58.775Z,54.77
2019-01-20T04:35:00.626Z,54.98
2019-01-20T04:37:02.452Z,52.35
2019-01-20T04:39:05.935Z,43.68
2019-01-20T04:41:07.841Z,45.78
2019-01-20T04:43:09.811Z,48.75
2019-01-20T04:45:12.006Z,48.98
2019-01-20T04:47:14.207Z,42.60
2019-01-20T04:49:15.920Z,48.25
2019-01-20T04:51:17.622Z,50.25
2019-01-20T04:53:19.336Z,49.53
2019-01-20T04:55:21.135Z,48.98
2019-01-20T04:57:23.246Z,57.60
2019-01-20T04:59:25.131Z,53.13
2019-01-20T05:01:26.834Z,49.50
2019-01-20T05:03:28.562Z,48.13
2019-01-20T05:05:30.448Z,53.78
2019-01-20T05:07:32.250Z,47.33
2019-01-20T05:09:34.011Z,49.73
2019-01-20T05:11:35.813Z,47.73
2019-01-20T05:13:37.540Z,50.40
2019-01-20T05:15:39.250Z,51.68
2019-01-20T05:17:41.108Z,46.42
2019-01-20T05:19:42.802Z,44.55
2019-01-20T05:21:44.518Z,47.85
2019-01-20T05:23:46.357Z,43.10
2019-01-20T05:25:48.169Z,52.67
2019-01-20T05:27:49.900Z,50.43
2019-01-20T05:29:51.734Z,48.85
2019-01-20T05:31:53.451Z,53.17
2019-01-20T05:33:55.156Z,47.73
2019-01-20T05:35:56.908Z,50.00
2019-01-20T05:37:58.730Z,43.92
2019-01-20T05:40:00.450Z,53.78
2019-01-20T05:42:02.644Z,48.17
2019-01-20T05:44:04.361Z,50.23
2019-01-20T05:46:06.073Z,45.90
2019-01-20T05:48:07.905Z,50.03
2019-01-20T05:50:10.905Z,58.38
2019-01-20T05:52:12.682Z,55.65
2019-01-20T05:54:14.421Z,50.90
2019-01-20T05:56:16.241Z,51.92
2019-01-20T05:58:18.058Z,56.90
2019-01-20T06:00:21.990Z,52.75
2019-01-20T06:02:23.699Z,51.13
2019-01-20T06:04:25.550Z,45.92
2019-01-20T06:06:27.286Z,50.85
2019-01-20T06:08:28.986Z,44.63
2019-01-20T06:10:30.679Z,56.00
2019-01-20T06:12:32.510Z,55.15
2019-01-20T06:14:34.225Z,60.73
2019-01-20T06:16:36.025Z,46.77
2019-01-20T06:18:37.836Z,52.08
2019-01-20T06:20:39.956Z,54.95
2019-01-20T06:22:41.668Z,54.98
2019-01-20T06:24:43.386Z,51.40
2019-01-20T06:26:45.216Z,49.63
2019-01-20T06:28:46.974Z,55.67
2019-01-20T06:30:48.725Z,55.20
2019-01-20T06:32:50.606Z,48.78
2019-01-20T06:34:52.329Z,56.90
2019-01-20T06:36:54.030Z,51.88
2019-01-20T06:38:55.781Z,46.20
2019-01-20T06:40:57.510Z,48.83
2019-01-20T06:43:02.242Z,50.45
2019-01-20T06:45:04.472Z,53.13
2019-01-20T06:47:06.206Z,53.02
2019-01-20T06:49:07.919Z,48.60
2019-01-20T06:51:09.742Z,49.93
2019-01-20T06:53:11.739Z,55.55
2019-01-20T06:55:13.661Z,47.60
2019-01-20T06:57:15.610Z,51.95
2019-01-20T06:59:17.399Z,46.60
2019-01-20T07:01:19.107Z,50.78
2019-01-20T07:03:21.087Z,54.85
2019-01-20T07:05:23.180Z,52.90
2019-01-20T07:07:24.986Z,52.78
2019-01-20T07:09:26.699Z,50.20
2019-01-20T07:11:28.721Z,52.33
2019-01-20T07:13:30.433Z,49.18
2019-01-20T07:15:32.312Z,49.95
2019-01-20T07:17:34.055Z,50.55
2019-01-20T07:19:35.898Z,46.08
2019-01-20T07:21:37.627Z,48.13
2019-01-20T07:23:39.342Z,46.05
2019-01-20T07:25:41.087Z,54.98
2019-01-20T07:31:04.308Z,43.80
2019-01-20T07:33:06.620Z,53.55
2019-01-20T07:35:08.800Z,47.33
2019-01-20T07:37:10.673Z,45.15
2019-01-20T07:39:12.541Z,54.23
2019-01-20T07:41:14.567Z,55.23
2019-01-20T07:43:16.923Z,43.42
2019-01-20T07:46:17.218Z,51.53
2019-01-20T07:49:00.308Z,48.38
2019-01-20T07:51:03.199Z,51.30
2019-01-20T07:53:04.967Z,49.58
2019-01-20T07:55:07.718Z,50.85
2019-01-20T07:57:10.748Z,54.88
2019-01-20T07:59:13.067Z,45.30
2019-01-20T08:01:14.815Z,47.88
2019-01-20T08:03:40.810Z,51.23
2019-01-20T08:06:32.311Z,48.25
2019-01-20T08:09:02.445Z,50.08
2019-01-20T08:11:04.535Z,48.98
2019-01-20T08:13:06.547Z,50.33
2019-01-20T08:15:08.950Z,49.65
2019-01-20T08:17:11.370Z,50.58
2019-01-20T08:19:16.079Z,41.88
2019-01-20T08:21:17.911Z,50.55
2019-01-20T08:23:19.664Z,42.35
2019-01-20T08:25:21.663Z,51.37
2019-01-20T08:27:23.547Z,40.05
2019-01-20T08:29:31.276Z,41.65
2019-01-20T08:32:20.423Z,47.08
2019-01-20T08:34:22.598Z,44.53
2019-01-20T08:36:24.593Z,44.20
2019-01-20T08:38:26.374Z,44.70
2019-01-20T08:40:29.711Z,45.60
2019-01-20T08:42:31.558Z,40.28
2019-01-20T08:44:37.369Z,48.33
2019-01-20T08:47:16.606Z,49.03
2019-01-20T08:49:18.354Z,46.23
2019-01-20T08:51:20.286Z,46.05
2019-01-20T08:53:22.274Z,50.20
2019-01-20T08:55:24.104Z,43.33
2019-01-20T08:57:27.210Z,41.10
2019-01-20T08:59:28.975Z,48.20
2019-01-20T09:01:30.814Z,43.78
2019-01-20T09:03:33.539Z,72.47
2019-01-20T09:05:35.399Z,48.05
2019-01-20T09:07:38.440Z,59.65
2019-01-20T09:09:40.363Z,55.73
2019-01-20T09:11:42.639Z,59.48
2019-01-20T09:13:44.376Z,46.33
2019-01-20T09:15:46.362Z,41.63
2019-01-20T09:17:48.338Z,45.25
2019-01-20T09:19:50.090Z,48.30
2019-01-20T09:21:55.358Z,41.25
2019-01-20T09:23:57.190Z,42.20
2019-01-20T09:25:59.272Z,43.20
2019-01-20T09:28:01.304Z,42.60
2019-01-20T09:30:05.510Z,41.68
2019-01-20T09:32:07.354Z,40.95
2019-01-20T09:34:12.295Z,41.90
2019-01-20T09:36:15.192Z,46.68
2019-01-20T09:38:16.999Z,45.60
2019-01-20T09:40:20.907Z,47.30
2019-01-20T09:42:22.754Z,47.20
2019-01-20T09:44:24.464Z,45.40
2019-01-20T09:46:26.177Z,42.93
2019-01-20T09:48:28.153Z,43.87
2019-01-20T09:50:29.870Z,45.35
2019-01-20T09:52:31.686Z,39.73
2019-01-20T09:54:33.418Z,37.38
2019-01-20T09:56:35.230Z,42.75
2019-01-20T09:58:36.971Z,43.05
2019-01-20T10:00:38.807Z,42.90
2019-01-20T10:02:41.703Z,44.88
2019-01-20T10:04:43.887Z,40.40
2019-01-20T10:06:45.744Z,45.23
2019-01-20T10:08:47.626Z,43.73
2019-01-20T10:10:49.380Z,45.10
2019-01-20T10:12:51.267Z,41.77
2019-01-20T10:14:53.052Z,40.00
2019-01-20T10:16:54.856Z,42.55
2019-01-20T10:18:56.603Z,43.87
2019-01-20T10:20:58.415Z,43.38
2019-01-20T10:23:00.314Z,45.48
2019-01-20T10:25:02.642Z,51.83
2019-01-20T10:27:04.455Z,43.28
2019-01-20T10:29:06.285Z,44.85
2019-01-20T10:31:08.076Z,37.00
2019-01-20T10:33:09.852Z,43.02
2019-01-20T10:35:12.198Z,40.38
2019-01-20T10:37:14.053Z,35.73
2019-01-20T10:39:15.756Z,38.33
2019-01-20T10:41:17.562Z,37.10
2019-01-20T10:43:19.340Z,38.00
2019-01-20T10:45:21.059Z,40.33
2019-01-20T10:47:22.766Z,38.78
2019-01-20T10:49:24.619Z,35.00
2019-01-20T10:51:26.833Z,37.10
2019-01-20T10:53:28.712Z,37.65
2019-01-20T10:55:30.796Z,34.98
2019-01-20T10:57:32.603Z,41.33
2019-01-20T10:59:34.566Z,36.10
2019-01-20T11:01:36.405Z,35.48
2019-01-20T11:03:38.204Z,39.00
2019-01-20T11:05:40.070Z,33.88
2019-01-20T11:07:41.807Z,31.37
2019-01-20T11:09:44.290Z,29.10
2019-01-20T11:11:46.269Z,34.53
2019-01-20T11:13:48.259Z,36.00
2019-01-20T11:15:50.043Z,32.70
2019-01-20T11:17:52.889Z,36.10
2019-01-20T11:19:54.789Z,35.73
2019-01-20T11:21:56.682Z,33.53
2019-01-20T11:23:58.601Z,30.70
2019-01-20T11:26:00.527Z,32.47
2019-01-20T11:28:02.453Z,28.90
2019-01-20T11:30:05.836Z,31.77
2019-01-20T11:32:07.591Z,32.63
2019-01-20T11:34:09.467Z,34.57
2019-01-20T11:36:11.312Z,30.03
2019-01-20T11:38:13.074Z,33.50
2019-01-20T11:40:15.097Z,30.67
2019-01-20T11:42:17.986Z,27.27
2019-01-20T11:44:19.707Z,31.70
2019-01-20T11:46:21.432Z,28.63
2019-01-20T11:48:26.068Z,27.30
2019-01-20T11:50:27.880Z,28.47
2019-01-20T11:52:29.744Z,28.40
2019-01-20T11:54:31.471Z,26.60
2019-01-20T11:56:33.298Z,32.10
2019-01-20T11:58:35.084Z,29.50
2019-01-20T12:00:37.022Z,30.63
2019-01-20T12:02:38.767Z,30.30
2019-01-20T12:04:40.562Z,31.73
2019-01-20T12:06:49.289Z,26.13
2019-01-20T12:08:51.139Z,28.03
2019-01-20T12:10:52.938Z,28.57
2019-01-20T12:13:05.901Z,33.73
2019-01-20T12:15:09.446Z,37.90
2019-01-20T12:17:11.288Z,32.40
2019-01-20T12:19:13.336Z,25.70
2019-01-20T12:21:15.172Z,34.40
2019-01-20T12:23:17.212Z,28.50
2019-01-20T12:25:19.183Z,25.90
2019-01-20T12:27:20.923Z,23.73
2019-01-20T12:29:22.751Z,24.53
2019-01-20T12:31:24.500Z,22.07
2019-01-20T12:33:26.295Z,24.10
2019-01-20T12:35:28.243Z,22.70
2019-01-20T12:37:30.219Z,19.93
2019-01-20T12:39:32.079Z,22.80
2019-01-20T12:41:34.103Z,25.10
2019-01-20T12:43:35.831Z,19.00
2019-01-20T12:45:37.642Z,17.37
2019-01-20T12:47:39.402Z,20.20
2019-01-20T12:49:41.813Z,14.87
2019-01-20T12:51:43.537Z,18.20
2019-01-20T12:53:45.497Z,19.37
2019-01-20T12:55:47.234Z,18.53
2019-01-20T12:57:48.955Z,16.97
2019-01-20T12:59:50.680Z,16.30
2019-01-20T13:01:52.466Z,18.10
2019-01-20T13:03:54.253Z,18.93
2019-01-20T13:05:56.146Z,19.70
2019-01-20T13:07:57.871Z,20.03
2019-01-20T13:09:59.628Z,17.40
2019-01-20T13:12:01.580Z,16.93
2019-01-20T13:14:03.626Z,17.83
2019-01-20T13:16:08.407Z,17.70
2019-01-20T13:18:10.138Z,17.30
2019-01-20T13:20:14.758Z,16.60
2019-01-20T13:22:16.495Z,19.57
2019-01-20T13:24:18.457Z,18.30
2019-01-20T13:26:20.623Z,18.10
2019-01-20T13:28:22.510Z,16.93
2019-01-20T13:30:25.761Z,14.90
2019-01-20T13:32:27.612Z,16.90
2019-01-20T13:34:29.326Z,15.77
2019-01-20T13:36:31.148Z,16.67
2019-01-20T13:38:32.940Z,16.97
2019-01-20T13:40:46.670Z,16.63
2019-01-20T13:42:48.494Z,16.07
2019-01-20T13:44:50.382Z,15.77
2019-01-20T13:46:52.311Z,17.23
2019-01-20T13:48:54.152Z,15.83
2019-01-20T13:50:55.879Z,16.30
2019-01-20T13:52:57.587Z,17.17
2019-01-20T13:54:59.314Z,18.60
2019-01-20T13:57:01.315Z,16.77
2019-01-20T13:59:03.343Z,17.70
2019-01-20T14:01:05.262Z,17.60
2019-01-20T14:03:06.986Z,18.17
2019-01-20T14:05:08.867Z,19.40
2019-01-20T14:07:11.021Z,17.63
2019-01-20T14:09:12.971Z,20.67
2019-01-20T14:11:14.805Z,18.83
2019-01-20T14:13:16.688Z,19.40
2019-01-20T14:15:18.630Z,18.10
2019-01-20T14:17:21.465Z,18.17
2019-01-20T14:19:23.191Z,16.97
2019-01-20T14:21:25.179Z,17.67
2019-01-20T14:23:27.002Z,17.87
2019-01-20T14:25:28.826Z,20.17
2019-01-20T14:27:31.390Z,25.87
2019-01-20T14:29:33.224Z,22.37
2019-01-20T14:31:34.946Z,24.40
2019-01-20T14:33:36.842Z,19.73
2019-01-20T14:35:38.592Z,20.23
2019-01-20T14:37:40.690Z,17.40
2019-01-20T14:39:42.425Z,21.33
2019-01-20T14:41:44.147Z,19.80
2019-01-20T14:43:46.021Z,27.13
2019-01-20T14:45:47.998Z,23.10
2019-01-20T14:47:49.743Z,25.10
2019-01-20T14:49:51.539Z,27.27
2019-01-20T14:51:53.277Z,30.63
2019-01-20T14:53:55.354Z,31.37
2019-01-20T14:55:57.396Z,30.97
2019-01-20T14:57:59.322Z,35.13
2019-01-20T15:00:01.162Z,31.50
2019-01-20T15:02:09.451Z,36.07
2019-01-20T15:04:12.182Z,37.90
2019-01-20T15:06:14.290Z,36.83
2019-01-20T15:08:16.477Z,39.33
2019-01-20T15:10:18.427Z,38.67
2019-01-20T15:12:20.398Z,43.30
2019-01-20T15:14:22.313Z,41.70
2019-01-20T15:16:24.167Z,43.17
2019-01-20T15:18:25.935Z,43.33
2019-01-20T15:20:27.734Z,48.10
2019-01-20T15:22:29.634Z,45.50
2019-01-20T15:24:31.575Z,47.23
2019-01-20T15:26:33.297Z,45.78
2019-01-20T15:28:35.996Z,43.58
2019-01-20T15:30:37.920Z,46.33
2019-01-20T15:32:39.626Z,39.35
2019-01-20T15:34:41.634Z,40.98
2019-01-20T15:36:43.339Z,43.02
2019-01-20T15:38:45.047Z,40.17
2019-01-20T15:40:47.131Z,43.00
2019-01-20T15:42:49.083Z,48.30
2019-01-20T15:44:50.790Z,42.70
2019-01-20T15:46:52.762Z,40.90
2019-01-20T15:48:54.474Z,39.60
2019-01-20T15:50:56.191Z,46.83
2019-01-20T15:52:58.218Z,41.83
2019-01-20T15:54:59.926Z,45.88
2019-01-20T15:57:01.658Z,46.42
2019-01-20T15:59:03.518Z,46.68
2019-01-20T16:01:05.274Z,44.08
2019-01-20T16:03:07.484Z,47.93
2019-01-20T16:05:09.506Z,45.55
2019-01-20T16:07:11.236Z,43.40
2019-01-20T16:09:12.961Z,39.70
2019-01-20T16:11:14.832Z,40.52
2019-01-20T16:13:16.550Z,42.55
2019-01-20T16:15:29.929Z,43.20
2019-01-20T16:17:31.794Z,45.50
2019-01-20T16:19:33.528Z,48.13
2019-01-20T16:21:35.623Z,46.30
2019-01-20T16:23:37.791Z,41.85
2019-01-20T16:25:39.531Z,48.50
2019-01-20T16:27:41.533Z,45.25
2019-01-20T16:29:43.543Z,41.70
2019-01-20T16:31:45.484Z,40.90
2019-01-20T16:33:47.385Z,40.10
2019-01-20T16:35:49.251Z,42.50
2019-01-20T16:37:51.583Z,43.42
2019-01-20T16:39:53.834Z,46.70
2019-01-20T16:41:56.559Z,39.95
2019-01-20T16:43:58.735Z,42.33
2019-01-20T16:46:00.646Z,41.13
2019-01-20T16:48:03.374Z,49.70
2019-01-20T16:50:07.515Z,43.05
2019-01-20T16:52:10.763Z,42.48
2019-01-20T16:54:12.835Z,41.45
2019-01-20T16:59:38.283Z,49.95
2019-01-20T17:01:48.059Z,41.92
2019-01-20T17:03:48.080Z,41.42
2019-01-20T17:05:49.802Z,49.13
2019-01-20T17:07:51.878Z,42.67
2019-01-20T17:09:53.902Z,46.77
2019-01-20T17:11:55.990Z,50.15
2019-01-20T17:13:57.731Z,52.80
2019-01-20T17:15:59.474Z,45.12
2019-01-20T17:18:01.423Z,49.83
2019-01-20T17:20:04.879Z,54.23
2019-01-20T17:22:06.714Z,56.73
2019-01-20T17:24:08.452Z,62.88
2019-01-20T17:26:10.585Z,53.68
2019-01-20T17:28:12.582Z,61.10
2019-01-20T17:30:17.015Z,55.95
2019-01-20T17:32:43.935Z,51.37
2019-01-20T17:34:45.830Z,51.70
2019-01-20T17:36:47.809Z,50.03
2019-01-20T17:38:49.844Z,48.28
2019-01-20T17:40:51.651Z,48.73
2019-01-20T17:42:53.570Z,54.67
2019-01-20T17:48:04.206Z,63.90
2019-01-20T17:50:28.394Z,69.92
2019-01-20T17:52:30.587Z,78.17
2019-01-20T17:54:32.496Z,109.15
2019-01-20T17:56:34.455Z,57.75
2019-01-20T17:58:36.475Z,125.92
2019-01-20T18:00:41.250Z,106.55
2019-01-20T18:02:43.126Z,96.67
2019-01-20T18:04:45.148Z,91.57
2019-01-20T18:06:47.124Z,87.90
2019-01-20T18:08:49.075Z,93.70
2019-01-20T18:10:51.054Z,62.33
2019-01-20T18:12:53.450Z,95.77
2019-01-20T18:14:55.275Z,85.97
2019-01-20T18:16:57.110Z,56.05
2019-01-20T18:18:58.814Z,79.32
2019-01-20T18:21:00.555Z,90.75
2019-01-20T18:23:02.679Z,72.17
2019-01-20T18:25:06.766Z,95.57
2019-01-20T18:27:08.654Z,88.45
2019-01-20T18:29:10.766Z,72.58
2019-01-20T18:31:12.490Z,66.65
2019-01-20T18:33:14.306Z,105.83
2019-01-20T18:35:17.039Z,92.57
2019-01-20T18:37:19.067Z,82.37
2019-01-20T18:39:20.873Z,144.20
2019-01-20T18:41:22.771Z,143.30
2019-01-20T18:43:24.863Z,134.35
2019-01-20T18:45:28.773Z,85.67
2019-01-20T18:47:30.715Z,73.35
2019-01-20T18:49:32.564Z,75.92
2019-01-20T18:51:34.417Z,176.40
2019-01-20T18:53:36.254Z,160.95
2019-01-20T18:55:38.511Z,75.25
2019-01-20T18:57:40.630Z,77.87
2019-01-20T18:59:42.363Z,91.05
2019-01-20T19:01:44.292Z,141.95
2019-01-20T19:03:46.035Z,140.82
2019-01-20T19:05:49.128Z,98.22
2019-01-20T19:07:55.339Z,68.87
2019-01-20T19:10:14.527Z,84.13
2019-01-20T19:12:16.353Z,95.53
2019-01-20T19:14:18.922Z,91.22
2019-01-20T19:16:20.691Z,91.15
2019-01-20T19:18:22.628Z,111.72
2019-01-20T19:20:24.612Z,62.48
2019-01-20T19:22:26.532Z,60.85
2019-01-20T19:24:28.287Z,75.97
2019-01-20T19:26:30.135Z,99.97
2019-01-20T19:28:32.135Z,106.35
2019-01-20T19:30:34.167Z,85.62
2019-01-20T19:32:35.950Z,121.75
2019-01-20T19:34:37.776Z,75.60
2019-01-20T19:36:39.531Z,174.60
2019-01-20T19:38:41.344Z,128.82
2019-01-20T19:40:43.254Z,153.20
2019-01-20T19:42:45.094Z,193.07
2019-01-20T19:44:46.818Z,114.22
2019-01-20T19:46:48.566Z,91.20
2019-01-20T19:48:51.147Z,119.37
2019-01-20T19:50:53.172Z,79.12
2019-01-20T19:52:55.044Z,121.80
2019-01-20T19:54:56.815Z,123.53
2019-01-20T19:56:58.571Z,82.88
2019-01-20T19:59:00.607Z,80.87
2019-01-20T20:01:02.694Z,73.33
2019-01-20T20:03:04.723Z,101.15
2019-01-20T20:05:09.984Z,79.05
2019-01-20T20:07:11.766Z,101.85
2019-01-20T20:09:13.674Z,97.53
2019-01-20T20:11:15.901Z,101.10
2019-01-20T20:13:25.162Z,117.05
2019-01-20T20:15:27.256Z,91.85
2019-01-20T20:17:30.135Z,64.97
2019-01-20T20:19:32.013Z,76.65
2019-01-20T20:21:34.190Z,63.60
2019-01-20T20:23:36.107Z,125.70
2019-01-20T20:25:38.201Z,115.40
2019-01-20T20:27:40.264Z,74.35
2019-01-20T20:29:42.719Z,92.27
2019-01-20T20:31:48.005Z,91.53
2019-01-20T20:33:49.890Z,80.87
2019-01-20T20:35:52.154Z,91.40
2019-01-20T20:37:54.076Z,68.10
2019-01-20T20:39:55.974Z,92.78
2019-01-20T20:41:57.867Z,112.88
2019-01-20T20:44:02.580Z,95.20
2019-01-20T20:46:04.563Z,65.17
2019-01-20T20:48:06.424Z,100.20
2019-01-20T20:50:09.599Z,153.65
2019-01-20T20:52:11.501Z,108.00
2019-01-20T20:54:13.580Z,150.70
2019-01-20T20:56:15.451Z,73.83
2019-01-20T20:58:17.222Z,83.17
2019-01-20T21:00:24.985Z,75.92
2019-01-20T21:02:26.851Z,78.90
2019-01-20T21:04:28.824Z,97.97
2019-01-20T21:06:31.093Z,65.92
2019-01-20T21:08:32.916Z,73.72
2019-01-20T21:10:34.887Z,65.05
2019-01-20T21:12:37.254Z,77.10
2019-01-20T21:14:39.325Z,83.37
2019-01-20T21:16:41.218Z,74.55
2019-01-20T21:18:43.150Z,107.97
2019-01-20T21:20:45.165Z,73.00
2019-01-20T21:22:47.063Z,75.72
2019-01-20T21:24:49.062Z,66.40
2019-01-20T21:26:51.117Z,75.62
2019-01-20T21:28:53.050Z,63.90
2019-01-20T21:30:55.063Z,52.73
2019-01-20T21:32:57.256Z,73.70
2019-01-20T21:34:59.303Z,60.70
2019-01-20T21:37:01.499Z,102.15
2019-01-20T21:39:06.463Z,100.30
2019-01-20T21:41:08.457Z,103.47
2019-01-20T21:43:10.548Z,56.68
2019-01-20T21:45:12.788Z,79.92
2019-01-20T21:47:14.740Z,79.53
2019-01-20T21:49:16.638Z,82.00
2019-01-20T21:51:18.603Z,70.87
2019-01-20T21:53:20.497Z,91.80
2019-01-20T21:55:22.919Z,61.35
2019-01-20T21:57:24.806Z,99.72
2019-01-20T21:59:26.817Z,69.58
2019-01-20T22:01:28.657Z,66.15
2019-01-20T22:03:30.683Z,67.12
2019-01-20T22:05:33.144Z,82.20
2019-01-20T22:07:35.293Z,77.08
2019-01-20T22:09:37.491Z,71.60
2019-01-20T22:11:39.290Z,56.10
2019-01-20T22:13:41.502Z,119.40
2019-01-20T22:15:44.801Z,122.13
2019-01-20T22:17:47.247Z,70.52
2019-01-20T22:19:49.455Z,77.35
2019-01-20T22:21:52.449Z,81.87
2019-01-20T22:23:54.513Z,85.42
2019-01-20T22:25:56.967Z,81.65
2019-01-20T22:27:58.916Z,63.63
2019-01-20T22:30:00.761Z,81.47
2019-01-20T22:32:02.781Z,84.07
2019-01-20T22:34:04.663Z,86.75
2019-01-20T22:36:06.435Z,80.65
2019-01-20T22:38:08.345Z,80.35
2019-01-20T22:40:11.227Z,74.55
2019-01-20T22:42:13.404Z,77.97
2019-01-20T22:44:15.847Z,75.20
2019-01-20T22:46:17.683Z,91.78
2019-01-20T22:48:19.743Z,64.15
2019-01-20T22:50:21.967Z,96.65
2019-01-20T22:52:23.763Z,73.28
2019-01-20T22:54:25.495Z,67.22
2019-01-20T22:56:27.220Z,73.10
2019-01-20T22:58:28.923Z,79.65
2019-01-20T23:00:46.303Z,66.12
2019-01-20T23:02:48.254Z,69.27
2019-01-20T23:04:49.970Z,66.65
2019-01-20T23:06:51.700Z,79.37
2019-01-20T23:08:53.423Z,57.70
2019-01-20T23:10:55.118Z,59.38
2019-01-20T23:12:56.822Z,79.22
2019-01-20T23:14:58.561Z,81.67
2019-01-20T23:17:07.506Z,77.53
2019-01-20T23:19:04.058Z,91.95
2019-01-20T23:21:05.862Z,77.65
2019-01-20T23:23:07.574Z,95.03
2019-01-20T23:25:09.382Z,66.60
2019-01-20T23:27:11.101Z,75.12
2019-01-20T23:29:13.068Z,65.40
2019-01-20T23:31:14.772Z,91.57
2019-01-20T23:33:16.514Z,62.40
2019-01-20T23:35:18.474Z,71.45
2019-01-20T23:37:20.423Z,72.78
2019-01-20T23:39:22.135Z,72.58
2019-01-20T23:41:23.878Z,68.35
2019-01-20T23:43:25.570Z,72.95
2019-01-20T23:45:27.374Z,92.92
2019-01-20T23:47:29.091Z,65.05
2019-01-20T23:49:30.814Z,86.50
2019-01-20T23:51:32.542Z,68.30
2019-01-20T23:53:34.395Z,72.90
2019-01-20T23:55:36.258Z,79.95
2019-01-20T23:57:38.058Z,74.25
2019-01-20T23:59:39.775Z,73.70
